createdAt,value
2022-08-30T00:01:14.531Z,8.70
2022-08-30T00:03:46.920Z,8.57
2022-08-30T00:06:17.869Z,8.50
2022-08-30T00:08:49.037Z,8.55
2022-08-30T00:11:20.057Z,9.13
2022-08-30T00:13:50.993Z,6.65
2022-08-30T00:16:20.110Z,7.43
2022-08-30T00:18:47.619Z,7.60
2022-08-30T00:21:18.411Z,7.25
2022-08-30T00:23:45.909Z,7.07
2022-08-30T00:26:13.451Z,7.80
2022-08-30T00:28:41.734Z,7.82
2022-08-30T00:31:09.097Z,7.72
2022-08-30T00:33:37.412Z,7.32
2022-08-30T00:36:04.929Z,7.07
2022-08-30T00:38:32.451Z,8.07
2022-08-30T00:40:59.951Z,7.27
2022-08-30T00:43:31.321Z,7.50
2022-08-30T00:45:59.715Z,7.00
2022-08-30T00:48:27.018Z,8.90
2022-08-30T00:51:00.404Z,9.00
2022-08-30T00:53:32.082Z,7.80
2022-08-30T00:56:00.578Z,8.63
2022-08-30T00:58:37.250Z,8.50
2022-08-30T01:01:07.737Z,9.25
2022-08-30T01:03:36.830Z,8.20
2022-08-30T01:06:04.869Z,7.70
2022-08-30T01:08:32.449Z,8.43
2022-08-30T01:11:00.399Z,7.93
2022-08-30T01:13:28.212Z,8.18
2022-08-30T01:15:56.243Z,10.07
2022-08-30T01:18:24.553Z,10.63
2022-08-30T01:21:24.756Z,12.20
2022-08-30T01:23:56.738Z,14.25
2022-08-30T01:26:24.169Z,14.60
2022-08-30T01:28:55.283Z,17.40
2022-08-30T01:31:22.507Z,15.60
2022-08-30T01:33:49.941Z,17.23
2022-08-30T01:36:17.755Z,17.48
2022-08-30T01:38:54.333Z,16.15
2022-08-30T01:41:27.811Z,16.77
2022-08-30T01:43:57.144Z,16.27
2022-08-30T01:46:28.688Z,16.92
2022-08-30T01:48:57.757Z,16.20
2022-08-30T01:51:27.615Z,15.77
2022-08-30T01:53:54.653Z,17.92
2022-08-30T01:56:22.783Z,16.85
2022-08-30T01:58:50.191Z,15.32
2022-08-30T02:01:20.266Z,15.93
2022-08-30T02:03:49.540Z,16.63
2022-08-30T02:06:19.525Z,13.57
2022-08-30T02:08:47.023Z,13.48
2022-08-30T02:11:15.239Z,14.77
2022-08-30T02:13:44.199Z,12.23
2022-08-30T02:16:16.192Z,11.02
2022-08-30T02:18:44.131Z,12.55
2022-08-30T02:21:12.643Z,14.13
2022-08-30T02:23:40.184Z,11.52
2022-08-30T02:26:07.512Z,12.05
2022-08-30T02:28:34.979Z,10.52
2022-08-30T02:31:11.263Z,9.90
2022-08-30T02:33:40.541Z,8.60
2022-08-30T02:36:09.192Z,8.90
2022-08-30T02:38:37.321Z,9.55
2022-08-30T02:41:04.513Z,8.23
2022-08-30T02:43:32.770Z,9.90
2022-08-30T02:46:00.010Z,7.90
2022-08-30T02:48:26.945Z,7.80
2022-08-30T02:50:54.210Z,8.90
2022-08-30T02:53:23.391Z,8.93
2022-08-30T02:55:54.330Z,9.43
2022-08-30T02:58:22.705Z,8.40
2022-08-30T03:00:49.514Z,8.70
2022-08-30T03:03:19.990Z,9.97
2022-08-30T03:05:46.869Z,9.88
2022-08-30T03:08:14.390Z,8.90
2022-08-30T03:10:41.314Z,8.27
2022-08-30T03:13:09.061Z,8.10
2022-08-30T03:15:40.154Z,8.57
2022-08-30T03:18:07.427Z,7.53
2022-08-30T03:20:35.257Z,7.60
2022-08-30T03:23:02.834Z,7.60
2022-08-30T03:25:29.674Z,7.30
2022-08-30T03:27:57.406Z,7.20
2022-08-30T03:30:24.520Z,8.07
2022-08-30T03:32:51.652Z,7.97
2022-08-30T03:35:21.706Z,7.87
2022-08-30T03:37:49.270Z,8.77
2022-08-30T03:40:24.343Z,7.80
2022-08-30T03:42:52.850Z,8.70
2022-08-30T03:45:20.293Z,8.83
2022-08-30T03:47:47.272Z,7.70
2022-08-30T03:50:15.860Z,7.63
2022-08-30T03:52:43.642Z,9.33
2022-08-30T03:55:10.393Z,10.37
2022-08-30T03:57:37.869Z,7.20
2022-08-30T04:00:11.073Z,7.90
2022-08-30T04:02:37.888Z,9.10
2022-08-30T04:05:05.921Z,7.90
2022-08-30T04:07:34.320Z,7.07
2022-08-30T04:10:01.100Z,7.93
2022-08-30T04:12:28.666Z,8.30
2022-08-30T04:14:55.985Z,8.40
2022-08-30T04:17:22.896Z,9.53
2022-08-30T04:19:50.457Z,9.43
2022-08-30T04:22:17.606Z,9.00
2022-08-30T04:24:44.372Z,8.50
2022-08-30T04:27:12.537Z,9.23
2022-08-30T04:29:39.758Z,8.97
2022-08-30T04:32:07.066Z,9.93
2022-08-30T04:34:34.232Z,9.77
2022-08-30T04:37:00.981Z,9.10
2022-08-30T04:39:27.828Z,9.70
2022-08-30T04:41:57.577Z,10.77
2022-08-30T04:44:27.456Z,11.30
2022-08-30T04:46:55.824Z,10.97
2022-08-30T04:49:23.298Z,10.00
2022-08-30T04:51:50.294Z,9.80
2022-08-30T04:54:17.746Z,10.80
2022-08-30T04:56:45.877Z,9.77
2022-08-30T04:59:14.550Z,9.77
2022-08-30T05:01:44.933Z,10.97
2022-08-30T05:04:13.465Z,10.17
2022-08-30T05:06:42.123Z,9.03
2022-08-30T05:09:08.915Z,8.93
2022-08-30T05:11:36.480Z,11.60
2022-08-30T05:14:03.186Z,9.23
2022-08-30T05:16:30.362Z,8.57
2022-08-30T05:18:58.557Z,13.37
2022-08-30T05:21:27.838Z,10.07
2022-08-30T05:24:00.145Z,9.83
2022-08-30T05:26:31.993Z,11.20
2022-08-30T05:28:59.379Z,8.57
2022-08-30T05:31:30.550Z,12.20
2022-08-30T05:33:58.150Z,9.77
2022-08-30T05:36:28.376Z,11.47
2022-08-30T05:38:57.979Z,8.60
2022-08-30T05:41:26.350Z,8.50
2022-08-30T05:43:58.846Z,10.13
2022-08-30T05:46:30.242Z,9.43
2022-08-30T05:48:57.500Z,10.23
2022-08-30T05:51:29.662Z,9.13
2022-08-30T05:54:02.058Z,10.20
2022-08-30T05:56:36.435Z,10.10
2022-08-30T05:59:06.338Z,8.83
2022-08-30T06:01:37.888Z,8.23
2022-08-30T06:04:08.124Z,8.60
2022-08-30T06:06:37.163Z,7.60
2022-08-30T06:09:06.067Z,8.57
2022-08-30T06:11:35.417Z,8.17
2022-08-30T06:14:02.864Z,6.83
2022-08-30T06:16:30.690Z,8.20
2022-08-30T06:19:00.749Z,10.40
2022-08-30T06:21:33.012Z,8.60
2022-08-30T06:24:00.931Z,8.70
2022-08-30T06:26:28.745Z,7.83
2022-08-30T06:28:56.351Z,7.93
2022-08-30T06:31:24.896Z,9.93
2022-08-30T06:33:53.014Z,8.80
2022-08-30T06:36:24.073Z,8.07
2022-08-30T06:38:53.331Z,7.57
2022-08-30T06:41:24.360Z,8.87
2022-08-30T06:43:51.629Z,9.00
2022-08-30T06:46:21.622Z,8.10
2022-08-30T06:48:50.854Z,8.70
2022-08-30T06:51:23.048Z,7.40
2022-08-30T06:53:50.383Z,8.20
2022-08-30T06:56:18.983Z,8.17
2022-08-30T06:58:48.008Z,8.03
2022-08-30T07:01:18.097Z,8.73
2022-08-30T07:03:45.258Z,7.83
2022-08-30T07:06:15.043Z,7.60
2022-08-30T07:08:42.537Z,6.57
2022-08-30T07:11:11.259Z,6.87
2022-08-30T07:13:40.454Z,7.40
2022-08-30T07:16:14.665Z,6.83
2022-08-30T07:18:53.755Z,6.80
2022-08-30T07:21:25.264Z,6.70
2022-08-30T07:23:56.909Z,7.93
2022-08-30T07:26:33.320Z,6.30
2022-08-30T07:29:17.206Z,6.37
2022-08-30T07:31:45.331Z,5.43
2022-08-30T07:34:12.438Z,5.90
2022-08-30T07:36:40.264Z,7.37
2022-08-30T07:39:08.351Z,7.87
2022-08-30T07:41:38.943Z,8.23
2022-08-30T07:44:08.115Z,6.70
2022-08-30T07:46:35.632Z,7.30
2022-08-30T07:49:04.130Z,7.40
2022-08-30T07:51:33.314Z,7.27
2022-08-30T07:54:01.191Z,7.00
2022-08-30T07:56:31.673Z,7.70
2022-08-30T07:59:02.686Z,7.27
2022-08-30T08:01:30.077Z,6.53
2022-08-30T08:04:04.467Z,6.80
2022-08-30T08:06:39.365Z,7.57
2022-08-30T08:09:12.414Z,6.37
2022-08-30T08:11:42.842Z,6.33
2022-08-30T08:14:12.248Z,6.60
2022-08-30T08:16:41.638Z,5.97
2022-08-30T08:19:09.595Z,6.97
2022-08-30T08:21:40.379Z,5.00
2022-08-30T08:24:10.749Z,4.80
2022-08-30T08:26:45.657Z,5.00
2022-08-30T08:29:26.792Z,5.53
2022-08-30T08:32:00.274Z,5.57
2022-08-30T08:34:30.145Z,5.53
2022-08-30T08:36:57.157Z,5.03
2022-08-30T08:39:24.089Z,3.77
2022-08-30T08:42:20.283Z,3.03
2022-08-30T08:45:11.102Z,3.80
2022-08-30T08:48:14.707Z,3.57
2022-08-30T08:51:11.061Z,3.30
2022-08-30T08:53:46.666Z,2.53
2022-08-30T08:56:18.152Z,3.17
2022-08-30T08:58:54.604Z,3.60
2022-08-30T09:01:32.911Z,4.80
2022-08-30T09:04:05.677Z,3.50
2022-08-30T09:06:59.554Z,3.77
2022-08-30T09:09:32.951Z,3.80
2022-08-30T09:11:59.769Z,3.20
2022-08-30T09:14:33.054Z,3.77
2022-08-30T09:17:09.706Z,3.47
2022-08-30T09:19:44.154Z,3.80
2022-08-30T09:22:27.893Z,3.63
2022-08-30T09:25:14.150Z,3.43
2022-08-30T09:27:46.822Z,3.90
2022-08-30T09:30:20.162Z,3.57
2022-08-30T09:33:18.848Z,3.63
2022-08-30T09:35:49.640Z,3.40
2022-08-30T09:38:30.278Z,4.47
2022-08-30T09:41:01.258Z,4.33
2022-08-30T09:43:29.355Z,3.70
2022-08-30T09:46:03.423Z,3.70
2022-08-30T09:48:44.546Z,2.90
2022-08-30T09:51:17.103Z,3.87
2022-08-30T09:54:18.793Z,3.93
2022-08-30T09:57:42.202Z,2.93
2022-08-30T10:00:19.423Z,2.27
2022-08-30T10:02:58.350Z,2.33
2022-08-30T10:05:47.783Z,2.40
2022-08-30T10:08:27.115Z,2.37
2022-08-30T10:10:59.431Z,2.70
2022-08-30T10:13:44.437Z,2.50
2022-08-30T10:16:50.588Z,2.10
2022-08-30T10:19:55.764Z,2.67
2022-08-30T10:22:31.694Z,2.03
2022-08-30T10:25:16.159Z,2.20
2022-08-30T10:28:04.883Z,2.40
2022-08-30T10:30:36.274Z,2.60
2022-08-30T10:33:18.442Z,2.60
2022-08-30T10:35:53.204Z,2.77
2022-08-30T10:38:32.184Z,3.03
2022-08-30T10:41:13.935Z,2.70
2022-08-30T10:43:43.635Z,3.20
2022-08-30T10:46:49.907Z,2.90
2022-08-30T10:49:21.493Z,3.03
2022-08-30T10:52:11.014Z,2.50
2022-08-30T10:55:00.021Z,3.17
2022-08-30T10:57:30.128Z,2.83
2022-08-30T11:00:26.817Z,2.87
2022-08-30T11:03:28.443Z,2.57
2022-08-30T11:06:32.734Z,2.70
2022-08-30T11:09:17.608Z,2.87
2022-08-30T11:12:13.547Z,2.40
2022-08-30T11:14:45.738Z,2.90
2022-08-30T11:17:27.688Z,2.40
2022-08-30T11:19:59.320Z,5.30
2022-08-30T11:22:38.674Z,2.43
2022-08-30T11:25:43.932Z,2.30
2022-08-30T11:28:38.920Z,2.47
2022-08-30T11:31:28.808Z,2.30
2022-08-30T11:34:01.095Z,2.23
2022-08-30T11:36:46.217Z,2.27
2022-08-30T11:39:44.961Z,2.70
2022-08-30T11:42:32.448Z,2.20
2022-08-30T11:45:25.423Z,2.20
2022-08-30T11:47:59.674Z,2.60
2022-08-30T11:50:43.393Z,2.50
2022-08-30T11:53:51.791Z,2.33
2022-08-30T11:57:08.626Z,2.40
2022-08-30T11:59:55.238Z,2.50
2022-08-30T12:02:56.538Z,2.20
2022-08-30T12:05:41.808Z,2.83
2022-08-30T12:08:24.228Z,2.97
2022-08-30T12:11:01.168Z,2.43
2022-08-30T12:13:55.441Z,2.00
2022-08-30T12:17:01.930Z,1.73
2022-08-30T12:19:31.596Z,2.40
2022-08-30T12:22:02.231Z,2.50
2022-08-30T12:24:36.955Z,2.50
2022-08-30T12:27:22.410Z,2.20
2022-08-30T12:29:59.653Z,2.40
2022-08-30T12:32:28.025Z,1.60
2022-08-30T12:34:59.982Z,1.40
2022-08-30T12:37:36.841Z,1.60
2022-08-30T12:40:21.157Z,1.50
2022-08-30T12:42:58.919Z,1.83
2022-08-30T12:45:31.352Z,1.97
2022-08-30T12:48:05.645Z,2.27
2022-08-30T12:50:44.600Z,1.70
2022-08-30T12:53:15.013Z,1.87
2022-08-30T12:56:03.805Z,1.70
2022-08-30T12:58:53.521Z,1.73
2022-08-30T13:01:31.593Z,1.73
2022-08-30T13:04:20.621Z,2.07
2022-08-30T13:07:01.565Z,2.00
2022-08-30T13:09:44.210Z,2.33
2022-08-30T13:12:23.686Z,2.50
2022-08-30T13:14:52.405Z,2.00
2022-08-30T13:17:19.341Z,2.00
2022-08-30T13:20:07.174Z,1.90
2022-08-30T13:22:43.184Z,2.10
2022-08-30T13:25:13.391Z,1.83
2022-08-30T13:27:46.647Z,1.57
2022-08-30T13:30:16.505Z,2.10
2022-08-30T13:32:46.841Z,2.00
2022-08-30T13:35:17.402Z,1.77
2022-08-30T13:37:49.330Z,2.00
2022-08-30T13:40:21.382Z,2.00
2022-08-30T13:42:48.802Z,1.93
2022-08-30T13:48:06.582Z,1.67
2022-08-30T13:50:33.890Z,2.20
2022-08-30T13:53:01.004Z,2.20
2022-08-30T13:55:28.731Z,1.80
2022-08-30T13:57:58.289Z,1.77
2022-08-30T14:00:26.855Z,1.90
2022-08-30T14:02:57.535Z,1.50
2022-08-30T14:11:18.555Z,2.27
2022-08-30T14:16:37.166Z,2.47
2022-08-30T14:19:11.305Z,1.70
2022-08-30T14:21:38.741Z,1.93
2022-08-30T14:24:07.131Z,2.23
2022-08-30T14:26:53.608Z,1.67
2022-08-30T14:29:25.293Z,2.60
2022-08-30T14:31:53.653Z,1.67
2022-08-30T14:34:28.672Z,2.37
2022-08-30T14:36:59.902Z,2.20
2022-08-30T14:39:29.865Z,2.33
2022-08-30T14:41:57.924Z,2.27
2022-08-30T14:44:55.324Z,2.07
2022-08-30T14:47:23.643Z,2.03
2022-08-30T14:50:01.201Z,1.73
2022-08-30T14:52:30.044Z,1.87
2022-08-30T14:55:03.736Z,2.27
2022-08-30T14:57:34.728Z,2.10
2022-08-30T15:00:01.780Z,2.37
2022-08-30T15:02:28.513Z,1.83
2022-08-30T15:04:55.405Z,1.60
2022-08-30T15:07:22.747Z,1.93
2022-08-30T15:09:49.598Z,1.57
2022-08-30T15:12:16.896Z,2.23
2022-08-30T15:14:43.707Z,2.07
2022-08-30T15:17:13.138Z,2.60
2022-08-30T15:19:42.746Z,1.90
2022-08-30T15:22:10.421Z,1.83
2022-08-30T15:24:39.154Z,2.10
2022-08-30T15:27:08.016Z,1.93
2022-08-30T15:29:48.750Z,2.33
2022-08-30T15:32:17.212Z,1.93
2022-08-30T15:34:45.353Z,2.10
2022-08-30T15:37:24.253Z,1.80
2022-08-30T15:39:53.814Z,2.03
2022-08-30T15:42:22.690Z,2.57
2022-08-30T15:44:59.501Z,2.03
2022-08-30T15:47:27.302Z,1.63
2022-08-30T15:49:56.754Z,1.60
2022-08-30T15:52:25.046Z,1.97
2022-08-30T15:54:53.334Z,3.30
2022-08-30T15:57:22.645Z,2.17
2022-08-30T15:59:50.303Z,2.67
2022-08-30T16:02:18.142Z,1.70
2022-08-30T16:04:47.781Z,2.23
2022-08-30T16:07:18.392Z,2.43
2022-08-30T16:09:48.924Z,2.67
2022-08-30T16:12:23.449Z,2.30
2022-08-30T16:14:52.572Z,2.50
2022-08-30T16:17:21.171Z,2.47
2022-08-30T16:19:48.653Z,1.73
2022-08-30T16:22:22.116Z,2.30
2022-08-30T16:24:50.872Z,2.13
2022-08-30T16:27:18.914Z,2.20
2022-08-30T16:29:50.139Z,2.90
2022-08-30T16:32:17.953Z,2.60
2022-08-30T16:34:49.929Z,2.70
2022-08-30T16:37:20.531Z,2.37
2022-08-30T16:39:49.815Z,1.67
2022-08-30T16:42:24.760Z,2.60
2022-08-30T16:45:02.542Z,2.20
2022-08-30T16:47:41.995Z,2.47
2022-08-30T16:50:11.808Z,2.40
2022-08-30T16:52:44.040Z,2.70
2022-08-30T16:55:14.475Z,1.93
2022-08-30T16:57:41.373Z,2.60
2022-08-30T17:00:13.127Z,2.20
2022-08-30T17:02:53.371Z,2.20
2022-08-30T17:05:23.513Z,2.00
2022-08-30T17:07:53.157Z,2.00
2022-08-30T17:10:22.995Z,2.00
2022-08-30T17:12:57.053Z,3.10
2022-08-30T17:15:26.767Z,3.00
2022-08-30T17:17:55.720Z,1.93
2022-08-30T17:20:22.928Z,2.87
2022-08-30T17:22:50.566Z,1.80
2022-08-30T17:25:22.043Z,2.40
2022-08-30T17:27:49.922Z,2.23
2022-08-30T17:30:17.356Z,1.83
2022-08-30T17:32:45.221Z,1.70
2022-08-30T17:35:12.049Z,2.20
2022-08-30T17:37:42.142Z,2.17
2022-08-30T17:40:14.487Z,1.90
2022-08-30T17:42:44.793Z,1.97
2022-08-30T17:45:14.393Z,2.20
2022-08-30T17:47:41.721Z,2.00
2022-08-30T17:50:13.259Z,2.27
2022-08-30T17:52:41.995Z,2.00
2022-08-30T17:55:09.743Z,1.77
2022-08-30T17:57:41.995Z,2.13
2022-08-30T18:00:15.664Z,1.97
2022-08-30T18:02:42.993Z,1.50
2022-08-30T18:05:24.700Z,2.20
2022-08-30T18:07:52.865Z,2.47
2022-08-30T18:10:30.485Z,2.77
2022-08-30T18:15:53.405Z,2.10
2022-08-30T18:18:21.702Z,2.23
2022-08-30T18:20:49.087Z,2.10
2022-08-30T18:23:24.557Z,2.13
2022-08-30T18:26:04.230Z,2.10
2022-08-30T18:28:47.301Z,1.90
2022-08-30T18:31:14.261Z,1.60
2022-08-30T18:33:46.955Z,2.17
2022-08-30T18:36:14.260Z,1.97
2022-08-30T18:38:42.600Z,1.87
2022-08-30T18:41:13.942Z,1.70
2022-08-30T18:43:42.046Z,1.90
2022-08-30T18:46:12.250Z,2.27
2022-08-30T18:48:39.832Z,1.90
2022-08-30T18:51:16.827Z,2.20
2022-08-30T18:53:49.273Z,2.00
2022-08-30T18:56:17.367Z,2.23
2022-08-30T18:58:46.376Z,2.17
2022-08-30T19:01:22.652Z,2.57
2022-08-30T19:03:53.535Z,2.53
2022-08-30T19:06:24.566Z,2.43
2022-08-30T19:08:51.839Z,2.30
2022-08-30T19:11:19.453Z,2.13
2022-08-30T19:13:46.651Z,2.90
2022-08-30T19:16:13.854Z,2.73
2022-08-30T19:18:48.253Z,2.20
2022-08-30T19:21:18.721Z,2.60
2022-08-30T19:23:54.404Z,2.40
2022-08-30T19:26:22.080Z,2.37
2022-08-30T19:28:49.636Z,2.30
2022-08-30T19:31:18.699Z,2.57
2022-08-30T19:33:45.883Z,2.90
2022-08-30T19:36:14.277Z,2.27
2022-08-30T19:38:44.363Z,3.10
2022-08-30T19:41:13.868Z,2.57
2022-08-30T19:43:42.236Z,3.77
2022-08-30T19:46:09.679Z,2.27
2022-08-30T19:48:42.984Z,2.43
2022-08-30T19:51:14.749Z,2.70
2022-08-30T19:53:45.291Z,2.80
2022-08-30T19:56:14.764Z,3.23
2022-08-30T19:58:41.676Z,2.57
2022-08-30T20:01:12.137Z,2.87
2022-08-30T20:03:58.014Z,3.27
2022-08-30T20:06:25.734Z,2.43
2022-08-30T20:08:57.924Z,2.80
2022-08-30T20:11:25.287Z,4.30
2022-08-30T20:13:52.590Z,3.03
2022-08-30T20:16:21.717Z,3.10
2022-08-30T20:19:05.100Z,3.10
2022-08-30T20:21:39.960Z,2.43
2022-08-30T20:24:11.774Z,2.90
2022-08-30T20:26:40.266Z,3.77
2022-08-30T20:29:15.565Z,3.00
2022-08-30T20:31:43.179Z,2.37
2022-08-30T20:34:10.091Z,2.63
2022-08-30T20:36:40.695Z,3.17
2022-08-30T20:39:17.570Z,2.90
2022-08-30T20:41:49.352Z,2.80
2022-08-30T20:44:18.300Z,3.20
2022-08-30T20:46:53.235Z,3.23
2022-08-30T20:49:22.334Z,3.00
2022-08-30T20:51:54.067Z,2.80
2022-08-30T20:54:24.693Z,2.63
2022-08-30T20:56:51.768Z,2.90
2022-08-30T20:59:22.830Z,3.10
2022-08-30T21:01:51.078Z,2.50
2022-08-30T21:04:31.059Z,3.00
2022-08-30T21:07:01.675Z,2.77
2022-08-30T21:09:28.571Z,2.47
2022-08-30T21:11:58.546Z,2.57
2022-08-30T21:14:25.291Z,2.07
2022-08-30T21:16:52.804Z,3.27
2022-08-30T21:19:20.190Z,3.10
2022-08-30T21:21:50.448Z,4.13
2022-08-30T21:24:23.618Z,3.17
2022-08-30T21:26:52.871Z,2.77
2022-08-30T21:29:24.201Z,2.17
2022-08-30T21:31:53.181Z,2.97
2022-08-30T21:34:20.025Z,2.70
2022-08-30T21:36:49.133Z,2.27
2022-08-30T21:39:24.814Z,2.37
2022-08-30T21:41:56.228Z,3.17
2022-08-30T21:44:25.877Z,2.50
2022-08-30T21:46:56.794Z,2.60
2022-08-30T21:49:27.167Z,2.90
2022-08-30T21:51:55.876Z,2.57
2022-08-30T21:54:23.737Z,2.70
2022-08-30T21:56:53.101Z,2.67
2022-08-30T21:59:21.479Z,2.97
2022-08-30T22:01:50.442Z,2.63
2022-08-30T22:04:17.401Z,2.43
2022-08-30T22:06:48.558Z,2.23
2022-08-30T22:09:24.623Z,2.30
2022-08-30T22:11:54.332Z,3.07
2022-08-30T22:14:26.604Z,2.93
2022-08-30T22:16:55.899Z,2.33
2022-08-30T22:19:23.622Z,2.50
2022-08-30T22:22:01.092Z,2.50
2022-08-30T22:24:32.042Z,2.53
2022-08-30T22:27:03.689Z,2.40
2022-08-30T22:29:41.755Z,2.37
2022-08-30T22:32:11.134Z,3.00
2022-08-30T22:34:39.016Z,2.23
2022-08-30T22:37:12.525Z,2.20
2022-08-30T22:39:40.110Z,2.70
2022-08-30T22:42:13.191Z,2.80
2022-08-30T22:44:41.907Z,1.73
2022-08-30T22:47:10.727Z,2.50
2022-08-30T22:49:41.495Z,3.73
2022-08-30T22:52:13.123Z,2.80
2022-08-30T22:54:45.887Z,2.30
2022-08-30T22:57:18.862Z,2.17
2022-08-30T22:59:46.434Z,3.90
2022-08-30T23:02:13.535Z,2.10
2022-08-30T23:04:44.279Z,2.23
2022-08-30T23:07:19.238Z,2.30
2022-08-30T23:09:49.729Z,2.60
2022-08-30T23:12:21.230Z,2.67
2022-08-30T23:14:53.610Z,2.90
2022-08-30T23:17:25.339Z,2.90
2022-08-30T23:22:39.604Z,3.20
2022-08-30T23:25:27.015Z,2.40
2022-08-30T23:28:20.793Z,3.00
2022-08-30T23:31:07.008Z,2.27
2022-08-30T23:33:53.911Z,2.80
2022-08-30T23:36:39.832Z,2.07
2022-08-30T23:39:28.977Z,2.63
2022-08-30T23:42:15.988Z,2.20
2022-08-30T23:45:05.106Z,1.80
2022-08-30T23:47:51.980Z,2.47
2022-08-30T23:50:37.933Z,2.07
2022-08-30T23:53:25.091Z,2.60
2022-08-30T23:56:10.747Z,2.50
2022-08-30T23:58:59.353Z,3.07
